Time;durP1;ratioP1;P1;durP2;ratioP2;P2;SDS_P1;SDS_P2;PMS_P1;PMS_P2;Temp;Humidity;BMP_temperature;BMP_pressure;BME280_temperature;BME280_humidity;BME280_pressure;Samples;Min_cycle;Max_cycle;Signal;HPM_P1;HPM_P2
2023/12/17 00:00:39;;;;;;;10.50;5.90;;;10.80;99.90;;;;;;5072910;28;20075;-72
2023/12/17 00:03:05;;;;;;;10.05;5.60;;;10.80;99.90;;;;;;5071027;28;20055;-72
2023/12/17 00:05:30;;;;;;;10.30;5.82;;;10.80;99.90;;;;;;5072640;28;20040;-72
2023/12/17 00:07:56;;;;;;;13.63;6.10;;;10.80;99.90;;;;;;5071298;28;20178;-72
2023/12/17 00:10:22;;;;;;;13.15;5.95;;;10.70;99.90;;;;;;5072794;28;20404;-72
2023/12/17 00:12:47;;;;;;;9.68;6.07;;;10.80;99.90;;;;;;5071347;28;20041;-72
2023/12/17 00:15:13;;;;;;;11.85;5.97;;;10.80;99.90;;;;;;5071205;28;20044;-72
2023/12/17 00:17:39;;;;;;;11.07;5.65;;;10.80;99.90;;;;;;5072317;28;20123;-72
2023/12/17 00:20:05;;;;;;;14.20;7.22;;;10.70;99.90;;;;;;5072797;28;20112;-72
2023/12/17 00:22:30;;;;;;;12.23;6.05;;;10.80;99.90;;;;;;5071362;28;20446;-72
2023/12/17 00:24:56;;;;;;;20.45;6.47;;;10.80;99.90;;;;;;5072389;28;20044;-72
2023/12/17 00:27:21;;;;;;;14.98;6.32;;;10.80;99.90;;;;;;5071210;28;20091;-72
2023/12/17 00:29:47;;;;;;;16.98;6.40;;;10.80;99.90;;;;;;5072403;28;20043;-72
2023/12/17 00:32:13;;;;;;;8.50;5.85;;;10.70;99.90;;;;;;5071070;28;20048;-72
2023/12/17 00:34:38;;;;;;;11.02;5.90;;;10.80;99.90;;;;;;5070885;28;20044;-72
2023/12/17 00:37:04;;;;;;;15.00;5.63;;;10.80;99.90;;;;;;5072084;28;20035;-72
2023/12/17 00:39:30;;;;;;;11.98;6.07;;;10.80;99.90;;;;;;5071076;28;20036;-72
2023/12/17 00:41:55;;;;;;;13.23;5.55;;;10.80;99.90;;;;;;5071284;28;20044;-73
2023/12/17 00:44:21;;;;;;;10.07;5.82;;;10.80;99.90;;;;;;5072029;28;20036;-72
2023/12/17 00:46:46;;;;;;;13.00;6.15;;;10.80;99.90;;;;;;5070508;28;20036;-72
2023/12/17 00:49:12;;;;;;;11.82;6.35;;;10.80;99.90;;;;;;5072077;28;20041;-72
2023/12/17 00:51:38;;;;;;;11.57;6.03;;;10.80;99.90;;;;;;5071060;28;20043;-72
2023/12/17 00:54:04;;;;;;;12.90;5.88;;;10.80;99.90;;;;;;5070734;28;20098;-72
2023/12/17 00:56:30;;;;;;;11.38;5.30;;;10.90;99.90;;;;;;5071585;28;20443;-71
2023/12/17 00:58:55;;;;;;;9.00;5.78;;;10.80;99.90;;;;;;5071838;28;20048;-71
2023/12/17 01:01:21;;;;;;;12.00;6.35;;;10.80;99.90;;;;;;5071873;28;20044;-71
2023/12/17 01:03:46;;;;;;;14.25;6.10;;;10.80;99.90;;;;;;5072058;28;20072;-72
2023/12/17 01:06:12;;;;;;;15.13;6.38;;;10.80;99.90;;;;;;5070360;28;20047;-71
2023/12/17 01:08:37;;;;;;;11.43;6.15;;;10.80;99.90;;;;;;5071759;28;20036;-71
2023/12/17 01:11:03;;;;;;;9.27;5.65;;;10.90;99.90;;;;;;5070835;28;20361;-71
2023/12/17 01:13:29;;;;;;;10.80;5.97;;;10.80;99.90;;;;;;5070732;28;20041;-72
2023/12/17 01:15:54;;;;;;;11.13;6.28;;;10.80;99.90;;;;;;5069372;28;20124;-71
2023/12/17 01:18:20;;;;;;;14.05;6.57;;;10.90;99.90;;;;;;5053851;28;20090;-72
2023/12/17 01:20:46;;;;;;;13.38;5.82;;;10.90;99.90;;;;;;5071838;28;20033;-71
2023/12/17 01:23:11;;;;;;;10.38;5.32;;;10.80;99.90;;;;;;5070373;28;20115;-71
2023/12/17 01:25:37;;;;;;;10.60;6.95;;;10.90;99.90;;;;;;5070207;28;20079;-72
2023/12/17 01:28:02;;;;;;;10.77;5.70;;;10.90;99.90;;;;;;5070137;28;20100;-71
2023/12/17 01:30:28;;;;;;;13.05;6.03;;;10.80;99.90;;;;;;5070327;28;20040;-71
2023/12/17 01:32:54;;;;;;;10.65;5.55;;;10.90;99.90;;;;;;5064700;28;20116;-71
2023/12/17 01:35:19;;;;;;;13.32;5.43;;;10.80;99.90;;;;;;5063054;28;20041;-71
2023/12/17 01:37:45;;;;;;;14.13;6.20;;;10.90;99.90;;;;;;5070888;28;20044;-71
2023/12/17 01:40:11;;;;;;;12.90;6.40;;;10.90;99.90;;;;;;5070228;28;20096;-72
2023/12/17 01:42:36;;;;;;;9.27;5.88;;;10.80;99.90;;;;;;5071457;28;20132;-71
2023/12/17 01:45:02;;;;;;;12.65;6.88;;;10.80;99.90;;;;;;5071206;28;20116;-71
2023/12/17 01:47:28;;;;;;;12.20;5.60;;;10.80;99.90;;;;;;5070221;28;20491;-72
2023/12/17 01:49:54;;;;;;;11.23;6.30;;;10.80;99.90;;;;;;5071327;28;20029;-71
2023/12/17 01:52:20;;;;;;;11.63;6.13;;;10.90;99.90;;;;;;5071513;28;20038;-71
2023/12/17 01:54:47;;;;;;;9.50;6.03;;;10.80;99.90;;;;;;5070033;28;20119;-71
2023/12/17 01:57:13;;;;;;;11.30;5.50;;;10.80;99.90;;;;;;5071086;28;20045;-71
2023/12/17 01:59:39;;;;;;;13.07;5.55;;;10.70;99.90;;;;;;5071358;28;20411;-71
2023/12/17 02:02:05;;;;;;;6.63;5.15;;;10.80;99.90;;;;;;5071387;28;20120;-71
2023/12/17 02:04:31;;;;;;;11.95;5.70;;;10.90;99.90;;;;;;5071230;28;20072;-72
2023/12/17 02:06:56;;;;;;;11.00;6.10;;;10.90;99.90;;;;;;5069881;28;20090;-71
2023/12/17 02:09:22;;;;;;;8.23;5.05;;;10.90;99.90;;;;;;5071294;28;20500;-71
2023/12/17 02:11:47;;;;;;;11.88;5.07;;;10.90;99.90;;;;;;5069913;28;20093;-72
2023/12/17 02:14:13;;;;;;;11.10;5.28;;;10.90;99.90;;;;;;5069852;28;20037;-73
2023/12/17 02:16:39;;;;;;;9.02;5.03;;;10.80;99.90;;;;;;5069605;28;20456;-71
2023/12/17 02:19:04;;;;;;;11.45;5.50;;;10.90;99.90;;;;;;5069867;28;20118;-71
2023/12/17 02:21:30;;;;;;;10.88;4.75;;;10.90;99.90;;;;;;5069917;28;20036;-71
2023/12/17 02:23:55;;;;;;;11.07;6.20;;;11.00;99.90;;;;;;5069836;28;20411;-71
2023/12/17 02:26:21;;;;;;;11.30;5.53;;;10.80;99.90;;;;;;5071224;28;20072;-71
2023/12/17 02:28:47;;;;;;;11.02;5.93;;;10.80;99.90;;;;;;5064968;28;20115;-71
2023/12/17 02:31:13;;;;;;;10.82;5.57;;;10.80;99.90;;;;;;5073420;28;20033;-71
2023/12/17 02:33:38;;;;;;;9.68;5.72;;;10.90;99.90;;;;;;5073361;28;20408;-72
2023/12/17 02:36:04;;;;;;;12.18;5.75;;;10.80;99.90;;;;;;5098595;22;20120;-72
2023/12/17 02:38:30;;;;;;;9.23;5.88;;;10.80;99.90;;;;;;5058887;28;20044;-73
2023/12/17 02:40:56;;;;;;;13.30;5.75;;;10.90;99.90;;;;;;5075310;28;20140;-72
2023/12/17 02:43:21;;;;;;;9.65;5.30;;;10.90;99.90;;;;;;5077214;28;20055;-72
2023/12/17 02:45:47;;;;;;;12.10;5.72;;;10.80;99.90;;;;;;5076634;28;20044;-74
2023/12/17 02:48:12;;;;;;;11.45;6.30;;;10.90;99.90;;;;;;5076497;28;20078;-72
2023/12/17 02:50:38;;;;;;;11.00;5.53;;;10.90;99.90;;;;;;5075623;28;20033;-73
2023/12/17 02:53:03;;;;;;;12.57;6.03;;;10.90;99.90;;;;;;5075731;28;20036;-72
2023/12/17 02:55:29;;;;;;;12.18;5.57;;;10.80;99.90;;;;;;5076876;28;20036;-73
2023/12/17 02:57:55;;;;;;;11.27;5.40;;;10.90;99.90;;;;;;5076391;28;20040;-73
2023/12/17 03:00:20;;;;;;;9.95;6.25;;;10.90;99.90;;;;;;5076969;28;20054;-73
2023/12/17 03:02:46;;;;;;;8.82;5.88;;;10.80;99.90;;;;;;5075909;28;20036;-73
2023/12/17 03:05:11;;;;;;;14.45;5.47;;;10.90;99.90;;;;;;5075153;28;20036;-73
2023/12/17 03:07:37;;;;;;;11.45;5.00;;;10.80;99.90;;;;;;5074731;28;20381;-74
2023/12/17 03:10:03;;;;;;;11.23;5.82;;;10.90;99.90;;;;;;5076578;28;20071;-73
2023/12/17 03:12:28;;;;;;;13.18;6.32;;;10.80;99.90;;;;;;5076189;28;20041;-73
2023/12/17 03:14:54;;;;;;;12.68;5.40;;;10.80;99.90;;;;;;5075404;28;20041;-73
2023/12/17 03:17:20;;;;;;;11.45;5.50;;;10.70;99.90;;;;;;5074964;28;20066;-73
2023/12/17 03:19:45;;;;;;;10.68;5.50;;;10.80;99.90;;;;;;5075692;28;20079;-72
2023/12/17 03:22:11;;;;;;;12.38;5.82;;;10.80;99.90;;;;;;5074129;28;20044;-73
2023/12/17 03:24:37;;;;;;;14.43;6.13;;;10.80;99.90;;;;;;5058350;28;20049;-73
2023/12/17 03:27:03;;;;;;;16.75;7.53;;;10.80;99.90;;;;;;5075498;28;20044;-73
2023/12/17 03:29:29;;;;;;;13.57;6.38;;;10.70;99.90;;;;;;5076554;28;20040;-73
2023/12/17 03:31:54;;;;;;;9.25;6.18;;;10.70;99.90;;;;;;5075654;28;20033;-73
2023/12/17 03:34:20;;;;;;;15.68;7.53;;;10.80;99.90;;;;;;5075160;28;20037;-73
2023/12/17 03:36:45;;;;;;;10.48;5.93;;;10.80;99.90;;;;;;5073540;28;20063;-73
2023/12/17 03:39:13;;;;;;;11.02;6.10;;;10.80;99.90;;;;;;5074494;28;20051;-73
2023/12/17 03:41:38;;;;;;;14.75;6.70;;;10.70;99.90;;;;;;5073708;28;20037;-73
2023/12/17 03:44:04;;;;;;;10.10;6.30;;;10.70;99.90;;;;;;5075457;28;20063;-73
2023/12/17 03:46:29;;;;;;;13.95;6.22;;;10.70;99.90;;;;;;5073483;28;20041;-73
2023/12/17 03:48:55;;;;;;;14.57;6.47;;;10.70;99.90;;;;;;5074478;28;20072;-73
2023/12/17 03:51:21;;;;;;;12.77;6.40;;;10.70;99.90;;;;;;5058354;28;20087;-73
2023/12/17 03:53:46;;;;;;;14.23;6.70;;;10.70;99.90;;;;;;5058714;28;20082;-73
2023/12/17 03:56:13;;;;;;;17.92;8.10;;;10.70;99.90;;;;;;5075619;28;20096;-73
2023/12/17 03:58:40;;;;;;;12.80;7.45;;;10.70;99.90;;;;;;5074915;28;20198;-73
2023/12/17 04:01:07;;;;;;;18.13;7.40;;;10.80;99.90;;;;;;5075031;28;20446;-73
2023/12/17 04:03:33;;;;;;;15.70;7.70;;;10.70;99.90;;;;;;5074838;28;20119;-73
2023/12/17 04:06:00;;;;;;;15.55;7.57;;;10.70;99.90;;;;;;5073060;28;20127;-73
2023/12/17 04:08:27;;;;;;;12.07;6.68;;;10.70;99.90;;;;;;5073348;28;20040;-74
2023/12/17 04:10:52;;;;;;;17.40;7.38;;;10.70;99.90;;;;;;5074099;28;20077;-73
2023/12/17 04:13:18;;;;;;;11.23;7.20;;;10.80;99.90;;;;;;5075595;28;20033;-73
2023/12/17 04:15:44;;;;;;;12.90;7.70;;;10.80;99.90;;;;;;5075841;28;20579;-73
2023/12/17 04:18:09;;;;;;;16.27;7.47;;;10.70;99.90;;;;;;5075464;28;20051;-73
2023/12/17 04:20:35;;;;;;;16.88;7.80;;;10.80;99.90;;;;;;5075856;28;20236;-73
2023/12/17 04:23:01;;;;;;;13.35;7.13;;;10.70;99.90;;;;;;5074824;28;20036;-73
2023/12/17 04:25:26;;;;;;;18.08;6.97;;;10.80;99.90;;;;;;5074717;28;20050;-73
2023/12/17 04:27:52;;;;;;;13.02;6.65;;;10.70;99.90;;;;;;5074529;28;20055;-73
2023/12/17 04:30:18;;;;;;;18.30;8.20;;;10.70;99.90;;;;;;5075491;28;20040;-73
2023/12/17 04:32:43;;;;;;;15.27;7.38;;;10.70;99.90;;;;;;5074431;28;20044;-73
2023/12/17 04:35:09;;;;;;;16.15;7.07;;;10.80;99.90;;;;;;5073362;28;20044;-73
2023/12/17 04:37:34;;;;;;;11.63;7.55;;;10.70;99.90;;;;;;5073412;28;20047;-73
2023/12/17 04:40:01;;;;;;;13.80;7.25;;;10.70;99.90;;;;;;5075325;28;20075;-73
2023/12/17 04:42:28;;;;;;;17.38;7.60;;;10.70;99.90;;;;;;5072697;28;20048;-73
2023/12/17 04:44:54;;;;;;;14.85;8.05;;;10.80;99.90;;;;;;5073173;28;20072;-73
2023/12/17 04:47:19;;;;;;;17.45;8.35;;;10.70;99.90;;;;;;5072564;28;20086;-73
2023/12/17 04:49:46;;;;;;;13.18;7.30;;;10.80;99.90;;;;;;5072135;28;20040;-73
2023/12/17 04:52:11;;;;;;;17.40;7.90;;;10.80;99.90;;;;;;5073761;28;20037;-73
2023/12/17 04:54:37;;;;;;;13.02;6.93;;;10.70;99.90;;;;;;5074808;28;20573;-73
2023/12/17 04:57:02;;;;;;;13.27;6.70;;;10.80;99.90;;;;;;5072493;28;20037;-73
2023/12/17 04:59:28;;;;;;;18.15;7.45;;;10.80;99.90;;;;;;5075354;28;20076;-73
2023/12/17 05:01:54;;;;;;;13.15;6.97;;;10.80;99.90;;;;;;5073942;28;20047;-73
2023/12/17 05:04:20;;;;;;;12.40;6.55;;;10.70;99.90;;;;;;5074884;28;20036;-73
2023/12/17 05:06:45;;;;;;;15.93;7.85;;;10.80;99.90;;;;;;5073330;28;20068;-73
2023/12/17 05:09:11;;;;;;;11.48;7.57;;;10.80;99.90;;;;;;5073946;28;20544;-73
2023/12/17 05:11:36;;;;;;;14.55;7.28;;;10.80;99.90;;;;;;5073684;28;20032;-73
2023/12/17 05:14:02;;;;;;;13.70;7.75;;;10.80;99.90;;;;;;5073711;28;20396;-73
2023/12/17 05:16:28;;;;;;;16.48;7.90;;;10.70;99.90;;;;;;5073297;28;20036;-73
2023/12/17 05:18:53;;;;;;;13.85;6.45;;;10.70;99.90;;;;;;5073306;28;20131;-73
2023/12/17 05:21:19;;;;;;;10.45;7.40;;;10.70;99.90;;;;;;5073752;28;20043;-73
2023/12/17 05:23:44;;;;;;;11.55;7.03;;;10.70;99.90;;;;;;5074242;28;20048;-73
2023/12/17 05:26:10;;;;;;;14.02;8.07;;;10.60;99.90;;;;;;5072942;28;20044;-73
2023/12/17 05:28:37;;;;;;;16.10;7.65;;;10.60;99.90;;;;;;5073401;28;20048;-73
2023/12/17 05:31:04;;;;;;;17.33;8.02;;;10.60;99.90;;;;;;5075176;28;20036;-73
2023/12/17 05:33:29;;;;;;;15.00;8.07;;;10.60;99.90;;;;;;5073688;28;20036;-73
2023/12/17 05:35:55;;;;;;;10.48;7.68;;;10.60;99.90;;;;;;5072854;28;20465;-73
2023/12/17 05:38:21;;;;;;;15.05;8.05;;;10.60;99.90;;;;;;5073061;28;20045;-73
2023/12/17 05:40:47;;;;;;;12.77;8.00;;;10.60;99.90;;;;;;5074732;28;20044;-73
2023/12/17 05:43:12;;;;;;;14.98;8.30;;;10.60;99.90;;;;;;5073526;28;20112;-73
2023/12/17 05:45:38;;;;;;;16.45;9.68;;;10.60;99.90;;;;;;5073190;28;20119;-73
2023/12/17 05:48:04;;;;;;;14.80;8.73;;;10.60;99.90;;;;;;5073287;28;20043;-73
2023/12/17 05:50:29;;;;;;;15.90;8.15;;;10.50;99.90;;;;;;5073185;28;20048;-73
2023/12/17 05:52:55;;;;;;;13.23;8.88;;;10.60;99.90;;;;;;5073457;28;20542;-73
2023/12/17 05:55:20;;;;;;;20.70;9.80;;;10.60;99.90;;;;;;5071999;28;20040;-73
2023/12/17 05:57:49;;;;;;;19.05;9.77;;;10.60;99.90;;;;;;5073075;28;20040;-73
2023/12/17 06:00:16;;;;;;;16.55;9.48;;;10.60;99.90;;;;;;5074353;28;20041;-73
2023/12/17 06:02:41;;;;;;;14.57;8.93;;;10.50;99.90;;;;;;5075723;28;20039;-73
2023/12/17 06:05:08;;;;;;;14.02;8.18;;;10.50;99.90;;;;;;5076699;28;20115;-72
2023/12/17 06:07:33;;;;;;;14.68;8.80;;;10.60;99.90;;;;;;5076827;28;20041;-73
2023/12/17 06:09:59;;;;;;;15.05;9.18;;;10.50;99.90;;;;;;5078217;28;20036;-73
2023/12/17 06:12:24;;;;;;;14.32;8.10;;;10.50;99.90;;;;;;5076992;28;20058;-73
2023/12/17 06:14:50;;;;;;;13.10;7.90;;;10.60;99.90;;;;;;5077781;28;20170;-73
2023/12/17 06:17:16;;;;;;;11.43;7.72;;;10.50;99.90;;;;;;5077414;28;20055;-73
2023/12/17 06:19:42;;;;;;;19.23;7.75;;;10.50;99.90;;;;;;5077031;28;20543;-73
2023/12/17 06:22:11;;;;;;;17.88;7.57;;;10.50;99.90;;;;;;5074943;28;20051;-73
2023/12/17 06:24:37;;;;;;;17.15;7.75;;;10.50;99.90;;;;;;5076616;28;20037;-73
2023/12/17 06:27:03;;;;;;;11.45;6.32;;;10.50;99.90;;;;;;5076437;28;20553;-73
2023/12/17 06:29:29;;;;;;;12.95;6.60;;;10.50;99.90;;;;;;5076462;28;20072;-73
2023/12/17 06:31:55;;;;;;;12.93;6.03;;;10.50;99.90;;;;;;5077401;28;20396;-73
2023/12/17 06:34:21;;;;;;;11.18;5.82;;;10.50;99.90;;;;;;5077158;28;20119;-73
2023/12/17 06:36:47;;;;;;;13.23;6.57;;;10.40;99.90;;;;;;5075660;28;20079;-73
2023/12/17 06:39:12;;;;;;;10.93;6.65;;;10.40;99.90;;;;;;5076961;28;20036;-73
2023/12/17 06:41:44;;;;;;;12.07;7.15;;;10.40;99.90;;;;;;5075900;28;20045;-73
2023/12/17 06:44:10;;;;;;;12.07;7.03;;;10.40;99.90;;;;;;5077401;28;20238;-73
2023/12/17 06:46:36;;;;;;;11.10;6.28;;;10.40;99.90;;;;;;5076823;28;20238;-73
2023/12/17 06:49:01;;;;;;;14.02;6.45;;;10.30;99.90;;;;;;5076682;28;20070;-73
2023/12/17 06:51:27;;;;;;;8.00;5.97;;;10.30;99.90;;;;;;5076881;28;20397;-74
2023/12/17 06:53:53;;;;;;;13.30;6.00;;;10.40;99.90;;;;;;5076123;28;20117;-73
2023/12/17 06:56:19;;;;;;;11.90;5.88;;;10.30;99.90;;;;;;5075320;28;20040;-74
2023/12/17 06:58:44;;;;;;;11.75;5.75;;;10.30;99.90;;;;;;5076394;28;20051;-74
2023/12/17 07:01:11;;;;;;;13.18;6.03;;;10.30;99.90;;;;;;5075695;28;20036;-73
2023/12/17 07:03:36;;;;;;;12.15;5.72;;;10.30;99.90;;;;;;5075992;28;20040;-73
2023/12/17 07:06:02;;;;;;;11.63;5.30;;;10.30;99.90;;;;;;5077146;28;20560;-73
2023/12/17 07:08:28;;;;;;;11.20;5.28;;;10.30;99.90;;;;;;5076749;28;20033;-73
2023/12/17 07:10:53;;;;;;;12.30;5.50;;;10.30;99.90;;;;;;5076574;28;20032;-74
2023/12/17 07:13:19;;;;;;;12.25;5.30;;;10.30;99.90;;;;;;5075410;28;20534;-73
2023/12/17 07:15:45;;;;;;;13.98;5.88;;;10.40;99.90;;;;;;5076303;28;20044;-73
2023/12/17 07:18:11;;;;;;;8.90;4.78;;;10.40;99.90;;;;;;5075019;28;20040;-73
2023/12/17 07:20:37;;;;;;;12.60;5.70;;;10.30;99.90;;;;;;5075624;28;20079;-73
2023/12/17 07:23:02;;;;;;;9.98;4.78;;;10.40;99.90;;;;;;5074719;28;20072;-73
2023/12/17 07:25:28;;;;;;;16.75;5.03;;;10.40;99.90;;;;;;5075405;28;20036;-73
2023/12/17 07:27:54;;;;;;;8.63;4.50;;;10.30;99.90;;;;;;5074465;28;20048;-73
2023/12/17 07:30:20;;;;;;;10.68;5.20;;;10.40;99.90;;;;;;5058377;28;20036;-73
2023/12/17 07:32:47;;;;;;;7.85;4.20;;;10.30;99.90;;;;;;5057444;28;20530;-73
2023/12/17 07:35:14;;;;;;;10.23;5.45;;;10.40;99.90;;;;;;5074483;28;20043;-73
2023/12/17 07:37:40;;;;;;;13.05;5.65;;;10.40;99.90;;;;;;5075061;28;20037;-73
2023/12/17 07:40:06;;;;;;;9.85;4.93;;;10.30;99.90;;;;;;5075696;28;20104;-74
2023/12/17 07:42:32;;;;;;;10.85;5.75;;;10.30;99.90;;;;;;5076428;28;20037;-73
2023/12/17 07:44:58;;;;;;;11.18;5.32;;;10.30;99.90;;;;;;5075144;28;20040;-73
2023/12/17 07:47:23;;;;;;;9.45;5.40;;;10.40;99.90;;;;;;5075384;28;20082;-74
2023/12/17 07:49:49;;;;;;;10.30;5.32;;;10.30;99.90;;;;;;5075952;28;20036;-74
2023/12/17 07:52:15;;;;;;;11.18;6.05;;;10.20;99.90;;;;;;5076544;28;20039;-73
2023/12/17 07:54:40;;;;;;;12.85;5.53;;;10.30;99.90;;;;;;5075615;28;20034;-73
2023/12/17 07:57:08;;;;;;;13.63;5.80;;;10.30;99.90;;;;;;5075101;28;20075;-73
2023/12/17 07:59:33;;;;;;;18.05;6.07;;;10.30;99.90;;;;;;5056675;28;20108;-74
2023/12/17 08:01:59;;;;;;;13.70;6.38;;;10.30;99.90;;;;;;5076004;28;20078;-73
2023/12/17 08:04:25;;;;;;;14.80;6.30;;;10.30;99.90;;;;;;5075991;28;20028;-72
2023/12/17 08:06:50;;;;;;;12.65;6.70;;;10.30;99.90;;;;;;5073580;28;20614;-73
2023/12/17 08:09:16;;;;;;;13.68;5.57;;;10.30;99.90;;;;;;5074012;28;20049;-74
2023/12/17 08:11:44;;;;;;;15.35;6.50;;;10.30;99.90;;;;;;5074553;28;20408;-74
2023/12/17 08:14:09;;;;;;;17.65;8.02;;;10.30;99.90;;;;;;5073551;28;20051;-74
2023/12/17 08:16:38;;;;;;;10.95;5.57;;;10.30;99.90;;;;;;5072919;28;20041;-74
2023/12/17 08:19:03;;;;;;;15.20;7.25;;;10.30;99.90;;;;;;5072313;28;20045;-74
2023/12/17 08:21:29;;;;;;;12.77;6.72;;;10.30;99.90;;;;;;5074166;28;20072;-75
2023/12/17 08:23:55;;;;;;;16.13;6.18;;;10.30;99.90;;;;;;5071762;28;20059;-73
2023/12/17 08:26:20;;;;;;;14.80;8.00;;;10.20;99.90;;;;;;5072913;28;20055;-73
2023/12/17 08:28:46;;;;;;;13.60;7.20;;;10.30;99.90;;;;;;5072227;28;20040;-73
2023/12/17 08:31:12;;;;;;;15.35;8.98;;;10.30;99.90;;;;;;5073373;28;20060;-73
2023/12/17 08:33:38;;;;;;;22.45;8.63;;;10.30;99.90;;;;;;5073897;28;20503;-72
2023/12/17 08:36:04;;;;;;;21.10;9.65;;;10.30;99.90;;;;;;5102879;22;20504;-72
2023/12/17 08:38:30;;;;;;;16.23;9.82;;;10.30;99.90;;;;;;5092158;28;20039;-73
2023/12/17 08:40:56;;;;;;;16.05;9.48;;;10.30;99.90;;;;;;5092008;28;20385;-73
2023/12/17 08:43:22;;;;;;;17.05;9.35;;;10.40;99.90;;;;;;5092288;28;20043;-72
2023/12/17 08:45:48;;;;;;;18.33;10.68;;;10.30;99.90;;;;;;5092010;28;20044;-72
2023/12/17 08:48:13;;;;;;;19.33;9.50;;;10.30;99.90;;;;;;5091917;28;20032;-73
2023/12/17 08:50:39;;;;;;;21.75;10.50;;;10.30;99.90;;;;;;5091797;28;20514;-73
2023/12/17 08:53:04;;;;;;;19.17;11.15;;;10.30;99.90;;;;;;5092300;28;20047;-72
2023/12/17 08:55:30;;;;;;;19.52;11.23;;;10.20;99.90;;;;;;5091514;28;20406;-72
2023/12/17 08:57:56;;;;;;;21.70;10.48;;;10.20;99.90;;;;;;5091337;28;20050;-72
2023/12/17 09:00:21;;;;;;;17.30;12.07;;;10.20;99.90;;;;;;5082947;28;20048;-73
2023/12/17 09:02:47;;;;;;;22.27;10.32;;;10.30;99.90;;;;;;5083111;28;20036;-73
2023/12/17 09:05:13;;;;;;;22.95;10.85;;;10.30;99.90;;;;;;5091794;28;20047;-72
2023/12/17 09:07:39;;;;;;;33.83;10.50;;;10.30;99.90;;;;;;5091593;28;20043;-72
2023/12/17 09:10:05;;;;;;;18.15;9.13;;;10.30;99.90;;;;;;5091691;28;20036;-72
2023/12/17 09:12:30;;;;;;;19.58;9.55;;;10.30;99.90;;;;;;5091837;28;20522;-72
2023/12/17 09:14:56;;;;;;;19.08;8.68;;;10.30;99.90;;;;;;5091650;28;20054;-72
2023/12/17 09:17:22;;;;;;;20.13;9.30;;;10.40;99.90;;;;;;5091328;28;20040;-72
2023/12/17 09:19:48;;;;;;;17.13;8.13;;;10.40;99.90;;;;;;5091748;28;20050;-72
2023/12/17 09:22:13;;;;;;;16.27;7.72;;;10.40;99.90;;;;;;5091651;28;20040;-73
2023/12/17 09:24:40;;;;;;;17.15;8.38;;;10.30;99.90;;;;;;5091651;28;20036;-72
2023/12/17 09:27:05;;;;;;;16.02;8.85;;;10.50;99.90;;;;;;5091308;28;20031;-73
2023/12/17 09:29:32;;;;;;;13.40;8.60;;;10.40;99.90;;;;;;5091381;28;20043;-73
2023/12/17 09:31:58;;;;;;;20.75;8.38;;;10.40;99.90;;;;;;5091615;28;20042;-72
2023/12/17 09:34:23;;;;;;;23.58;8.40;;;10.40;99.90;;;;;;5091544;28;20111;-73
2023/12/17 09:36:49;;;;;;;19.80;9.50;;;10.40;99.90;;;;;;5092757;28;20483;-72
2023/12/17 09:39:14;;;;;;;21.33;8.30;;;10.50;99.90;;;;;;5095652;28;20047;-72
2023/12/17 09:41:41;;;;;;;27.90;10.68;;;10.40;99.90;;;;;;5095762;28;20067;-73
2023/12/17 09:44:07;;;;;;;20.33;8.35;;;10.50;99.90;;;;;;5095557;28;20036;-72
2023/12/17 09:46:35;;;;;;;23.73;8.48;;;10.50;99.90;;;;;;5095163;28;20043;-73
2023/12/17 09:49:00;;;;;;;18.33;9.15;;;10.60;99.90;;;;;;5094392;28;20044;-73
2023/12/17 09:51:28;;;;;;;18.48;8.57;;;10.50;99.90;;;;;;5095505;28;20134;-72
2023/12/17 09:53:57;;;;;;;16.15;9.40;;;10.50;99.90;;;;;;5095547;28;20075;-72
2023/12/17 09:56:23;;;;;;;20.35;9.05;;;10.50;99.90;;;;;;5095018;28;20042;-73
2023/12/17 09:58:49;;;;;;;22.13;8.38;;;10.60;99.90;;;;;;5095533;28;20055;-72
2023/12/17 10:01:14;;;;;;;23.45;10.13;;;10.60;99.90;;;;;;5095406;28;20032;-72
2023/12/17 10:03:40;;;;;;;25.08;8.57;;;10.60;99.90;;;;;;5095556;28;20092;-72
2023/12/17 10:06:06;;;;;;;19.30;8.13;;;10.60;99.90;;;;;;5094988;28;20089;-72
2023/12/17 10:08:32;;;;;;;15.25;8.70;;;10.70;99.90;;;;;;5094851;28;20406;-73
2023/12/17 10:10:58;;;;;;;19.38;8.32;;;10.70;99.90;;;;;;5095052;28;20036;-73
2023/12/17 10:13:24;;;;;;;23.35;8.32;;;10.70;99.90;;;;;;5094970;28;20036;-73
2023/12/17 10:15:51;;;;;;;17.10;8.30;;;10.70;99.90;;;;;;5095035;28;20036;-73
2023/12/17 10:18:18;;;;;;;18.00;8.75;;;10.60;99.90;;;;;;5095093;28;20062;-73
2023/12/17 10:20:45;;;;;;;25.88;9.70;;;10.70;99.90;;;;;;5079852;28;20149;-73
2023/12/17 10:23:10;;;;;;;19.75;8.90;;;10.70;99.90;;;;;;5094988;28;20058;-72
2023/12/17 10:25:36;;;;;;;18.65;8.85;;;10.70;99.90;;;;;;5094367;28;20048;-73
2023/12/17 10:28:02;;;;;;;23.75;10.60;;;10.80;99.90;;;;;;5094861;28;20079;-74
2023/12/17 10:30:32;;;;;;;24.30;11.00;;;10.80;99.90;;;;;;5094821;28;20101;-73
2023/12/17 10:33:00;;;;;;;25.42;12.32;;;10.70;99.90;;;;;;5094975;28;20039;-72
2023/12/17 10:35:29;;;;;;;20.75;12.98;;;10.80;99.90;;;;;;5094331;28;20534;-73
2023/12/17 10:38:08;;;;;;;30.23;14.05;;;10.80;99.90;;;;;;5093187;28;20039;-73
2023/12/17 10:40:35;;;;;;;25.00;12.55;;;10.80;99.90;;;;;;5089652;28;20090;-73
2023/12/17 10:43:04;;;;;;;22.20;11.48;;;10.80;99.90;;;;;;5092910;28;20476;-73
2023/12/17 10:45:31;;;;;;;25.55;11.52;;;10.80;99.90;;;;;;5085569;28;20079;-73
2023/12/17 10:47:59;;;;;;;20.17;12.27;;;10.80;99.90;;;;;;5083830;28;20043;-72
2023/12/17 10:50:26;;;;;;;25.60;12.13;;;10.70;99.90;;;;;;5078609;28;20492;-72
2023/12/17 10:52:52;;;;;;;25.10;12.95;;;10.80;99.90;;;;;;5081451;28;20025;-73
2023/12/17 10:55:18;;;;;;;26.25;13.70;;;10.80;99.90;;;;;;5088958;28;20070;-71
2023/12/17 10:57:54;;;;;;;27.08;14.45;;;10.70;99.90;;;;;;5088895;28;20047;-72
2023/12/17 11:00:23;;;;;;;28.27;15.20;;;10.90;99.90;;;;;;5091732;28;20107;-72
2023/12/17 11:02:51;;;;;;;33.33;15.20;;;10.70;99.90;;;;;;5091100;28;20044;-73
2023/12/17 11:05:17;;;;;;;30.08;14.90;;;10.80;99.90;;;;;;5085544;28;20119;-73
2023/12/17 11:07:43;;;;;;;31.77;17.20;;;10.80;99.90;;;;;;5081388;28;20121;-74
2023/12/17 11:10:13;;;;;;;33.75;16.92;;;10.80;99.90;;;;;;5085687;28;20036;-72
2023/12/17 11:12:40;;;;;;;35.75;17.02;;;10.90;99.90;;;;;;5094029;28;20046;-72
2023/12/17 11:15:06;;;;;;;34.40;17.35;;;10.80;99.90;;;;;;5092656;28;20047;-72
2023/12/17 11:17:31;;;;;;;39.67;19.02;;;10.90;99.90;;;;;;5093667;28;20111;-72
2023/12/17 11:20:00;;;;;;;34.80;18.00;;;10.90;99.90;;;;;;5093505;28;20182;-73
2023/12/17 11:22:27;;;;;;;39.33;19.90;;;10.90;99.90;;;;;;5092456;28;20126;-73
2023/12/17 11:24:55;;;;;;;33.03;18.10;;;10.90;99.90;;;;;;5093645;28;20036;-73
2023/12/17 11:27:22;;;;;;;31.80;18.45;;;11.00;99.90;;;;;;5093450;28;20093;-74
2023/12/17 11:29:52;;;;;;;32.22;16.98;;;11.00;99.90;;;;;;5093533;28;20040;-74
2023/12/17 11:32:19;;;;;;;31.25;17.17;;;10.90;99.90;;;;;;5090680;28;20451;-73
2023/12/17 11:34:50;;;;;;;30.67;16.92;;;11.00;99.90;;;;;;5093672;28;20036;-72
2023/12/17 11:37:20;;;;;;;35.45;16.88;;;11.00;99.90;;;;;;5092963;28;20070;-73
2023/12/17 11:39:49;;;;;;;28.30;16.00;;;11.10;99.90;;;;;;5093574;28;20119;-72
2023/12/17 11:42:17;;;;;;;26.80;16.15;;;11.00;99.90;;;;;;5093249;28;20024;-72
2023/12/17 11:44:50;;;;;;;30.13;17.05;;;11.10;99.90;;;;;;5091886;28;20082;-72
2023/12/17 11:47:18;;;;;;;29.20;15.98;;;11.00;99.90;;;;;;5092760;28;20403;-73
2023/12/17 11:49:44;;;;;;;26.08;14.70;;;11.00;99.90;;;;;;5093326;28;20036;-72
2023/12/17 11:52:14;;;;;;;23.88;14.18;;;11.10;99.90;;;;;;5091634;28;20046;-72
2023/12/17 11:54:43;;;;;;;27.67;14.50;;;11.10;99.90;;;;;;5093218;28;20036;-72
2023/12/17 11:57:23;;;;;;;25.38;14.48;;;11.00;99.90;;;;;;5092516;28;20108;-72
2023/12/17 11:59:52;;;;;;;27.70;13.90;;;11.00;99.90;;;;;;5091179;28;20070;-72
2023/12/17 12:02:20;;;;;;;23.02;13.90;;;11.00;99.90;;;;;;5091423;28;20075;-72
2023/12/17 12:04:46;;;;;;;22.92;12.80;;;11.00;99.90;;;;;;5092946;28;20040;-72
2023/12/17 12:07:20;;;;;;;27.48;13.27;;;11.00;99.90;;;;;;5092503;28;20055;-72
2023/12/17 12:09:47;;;;;;;21.17;12.07;;;11.00;99.90;;;;;;5092959;28;20044;-71
2023/12/17 12:12:24;;;;;;;27.63;14.93;;;11.00;99.90;;;;;;5092624;28;20400;-72
2023/12/17 12:14:50;;;;;;;25.58;11.70;;;11.00;99.90;;;;;;5092849;28;20036;-73
2023/12/17 12:17:39;;;;;;;26.25;12.15;;;11.00;99.90;;;;;;5092411;28;20040;-73
2023/12/17 12:20:12;;;;;;;22.80;12.57;;;11.00;99.90;;;;;;5092657;28;20458;-72
2023/12/17 12:22:39;;;;;;;;;;;11.00;99.90;;;;;;5093211;28;20036;-72
2023/12/17 12:25:05;;;;;;;18.48;11.85;;;11.00;99.90;;;;;;5091185;28;19924;-72
2023/12/17 12:27:30;;;;;;;23.65;11.07;;;11.00;99.90;;;;;;5092277;28;20453;-72
2023/12/17 12:29:57;;;;;;;19.27;11.43;;;11.00;99.90;;;;;;5092469;28;20492;-72